Time;durP1;ratioP1;P1;durP2;ratioP2;P2;SDS_P1;SDS_P2;PMS_P1;PMS_P2;Temp;Humidity;BMP_temperature;BMP_pressure;BME280_temperature;BME280_humidity;BME280_pressure;Samples;Min_cycle;Max_cycle;Signal;HPM_P1;HPM_P2
2022/03/11 00:00:07;;;;;;;0.20;0.20;;;;;;;;;;5084529;28;20253;-65
2022/03/11 00:02:34;;;;;;;2.00;2.00;;;;;;;;;;5090128;28;20242;-67
2022/03/11 00:05:01;;;;;;;0.30;0.30;;;;;;;;;;5085140;28;20209;-64
2022/03/11 00:07:27;;;;;;;0.20;0.20;;;;;;;;;;5090631;28;20235;-65
2022/03/11 00:09:54;;;;;;;0.20;0.20;;;;;;;;;;5084985;28;20265;-64
2022/03/11 00:12:21;;;;;;;0.20;0.20;;;;;;;;;;5090477;28;20288;-64
2022/03/11 00:14:47;;;;;;;0.27;0.27;;;;;;;;;;5084946;28;20222;-65
2022/03/11 00:17:13;;;;;;;0.20;0.20;;;;;;;;;;5090319;28;20568;-64
2022/03/11 00:19:39;;;;;;;0.20;0.20;;;;;;;;;;5085022;28;20203;-65
2022/03/11 00:22:05;;;;;;;0.20;0.20;;;;;;;;;;5090029;28;20307;-66
2022/03/11 00:24:32;;;;;;;0.23;0.23;;;;;;;;;;5084676;28;20211;-64
2022/03/11 00:26:59;;;;;;;0.20;0.20;;;;;;;;;;5089048;28;20234;-63
2022/03/11 00:29:25;;;;;;;0.30;0.30;;;;;;;;;;5085407;28;20368;-64
2022/03/11 00:31:52;;;;;;;0.77;0.77;;;;;;;;;;5088282;28;20446;-64
2022/03/11 00:34:18;;;;;;;0.20;0.20;;;;;;;;;;5085713;28;20245;-65
2022/03/11 00:36:44;;;;;;;1.60;0.80;;;;;;;;;;5086748;28;20240;-65
2022/03/11 00:39:12;;;;;;;0.20;0.20;;;;;;;;;;5086888;28;20219;-65
2022/03/11 00:41:38;;;;;;;1.57;1.57;;;;;;;;;;5086249;28;20291;-66
2022/03/11 00:44:07;;;;;;;0.20;0.20;;;;;;;;;;5087260;28;20260;-65
2022/03/11 00:46:33;;;;;;;0.30;0.30;;;;;;;;;;5085261;28;20305;-64
2022/03/11 00:48:59;;;;;;;0.50;0.50;;;;;;;;;;5088131;28;20254;-64
2022/03/11 00:51:26;;;;;;;1.53;1.53;;;;;;;;;;5084218;28;20238;-64
2022/03/11 00:53:52;;;;;;;0.20;0.20;;;;;;;;;;5088727;28;20203;-64
2022/03/11 00:56:18;;;;;;;0.30;0.30;;;;;;;;;;5083222;28;20257;-65
2022/03/11 00:58:46;;;;;;;0.30;0.30;;;;;;;;;;5089979;28;20270;-64
2022/03/11 01:01:13;;;;;;;0.40;0.40;;;;;;;;;;5082211;28;20257;-65
2022/03/11 01:03:40;;;;;;;0.20;0.20;;;;;;;;;;5090258;28;20249;-64
2022/03/11 01:06:06;;;;;;;0.20;0.20;;;;;;;;;;5081262;28;20230;-63
2022/03/11 01:08:32;;;;;;;0.30;0.30;;;;;;;;;;5091343;28;20207;-63
2022/03/11 01:10:58;;;;;;;0.30;0.30;;;;;;;;;;5080057;28;20238;-64
2022/03/11 01:13:24;;;;;;;0.30;0.30;;;;;;;;;;5092042;28;20343;-64
2022/03/11 01:15:51;;;;;;;0.50;0.50;;;;;;;;;;5078644;28;20280;-65
2022/03/11 01:18:18;;;;;;;5.30;5.10;;;;;;;;;;5093216;28;20498;-65
2022/03/11 01:20:44;;;;;;;0.50;0.50;;;;;;;;;;5078105;28;20238;-64
2022/03/11 01:23:11;;;;;;;3.63;1.03;;;;;;;;;;5093981;28;20207;-64
2022/03/11 01:25:37;;;;;;;0.40;0.40;;;;;;;;;;5077167;28;20238;-64
2022/03/11 01:28:03;;;;;;;0.67;0.67;;;;;;;;;;5094865;28;20379;-64
2022/03/11 01:30:29;;;;;;;0.20;0.20;;;;;;;;;;5076226;28;20238;-65
2022/03/11 01:32:55;;;;;;;0.20;0.20;;;;;;;;;;5095489;28;20226;-65
2022/03/11 01:35:23;;;;;;;0.40;0.40;;;;;;;;;;5075212;28;20243;-64
2022/03/11 01:37:49;;;;;;;1.60;1.60;;;;;;;;;;5096595;28;20298;-65
2022/03/11 01:40:18;;;;;;;0.20;0.20;;;;;;;;;;5074222;28;20203;-64
2022/03/11 01:42:44;;;;;;;0.23;0.23;;;;;;;;;;5097340;28;20316;-64
2022/03/11 01:45:10;;;;;;;0.20;0.20;;;;;;;;;;5073606;28;20245;-65
2022/03/11 01:47:36;;;;;;;0.20;0.20;;;;;;;;;;5097947;28;20207;-64
2022/03/11 01:50:03;;;;;;;0.20;0.20;;;;;;;;;;5083145;28;20238;-64
2022/03/11 01:52:30;;;;;;;2.00;0.93;;;;;;;;;;5071567;28;20207;-64
2022/03/11 01:54:57;;;;;;;0.20;0.20;;;;;;;;;;5083170;28;20203;-63
2022/03/11 01:57:23;;;;;;;0.33;0.33;;;;;;;;;;5088355;28;20234;-64
2022/03/11 01:59:49;;;;;;;1.13;1.13;;;;;;;;;;5083045;28;20204;-65
2022/03/11 02:02:16;;;;;;;3.73;3.43;;;;;;;;;;5088289;28;20241;-64
2022/03/11 02:04:42;;;;;;;0.30;0.30;;;;;;;;;;5083068;28;20226;-65
2022/03/11 02:07:08;;;;;;;0.27;0.27;;;;;;;;;;5088271;28;20545;-63
2022/03/11 02:09:36;;;;;;;0.30;0.30;;;;;;;;;;5082700;28;20207;-64
2022/03/11 02:12:03;;;;;;;0.30;0.30;;;;;;;;;;5087771;28;20561;-64
2022/03/11 02:14:29;;;;;;;0.40;0.40;;;;;;;;;;5083231;28;20203;-64
2022/03/11 02:16:55;;;;;;;0.30;0.30;;;;;;;;;;5086697;28;20238;-64
2022/03/11 02:19:22;;;;;;;0.20;0.20;;;;;;;;;;5084131;28;20219;-63
2022/03/11 02:21:50;;;;;;;0.23;0.23;;;;;;;;;;5085781;28;20310;-65
2022/03/11 02:24:17;;;;;;;0.30;0.30;;;;;;;;;;5085646;28;20248;-63
2022/03/11 02:26:44;;;;;;;0.27;0.27;;;;;;;;;;5089219;28;20240;-64
2022/03/11 02:29:10;;;;;;;0.30;0.30;;;;;;;;;;5089591;28;20209;-64
2022/03/11 02:31:36;;;;;;;0.30;0.30;;;;;;;;;;5088209;28;20263;-63
2022/03/11 02:34:04;;;;;;;0.23;0.23;;;;;;;;;;5090033;28;20231;-63
2022/03/11 02:36:30;;;;;;;0.20;0.20;;;;;;;;;;5087308;28;20284;-64
2022/03/11 02:38:56;;;;;;;3.03;2.93;;;;;;;;;;5091295;28;20207;-63
2022/03/11 02:41:24;;;;;;;0.30;0.30;;;;;;;;;;5086392;28;20238;-63
2022/03/11 02:43:50;;;;;;;0.30;0.30;;;;;;;;;;5091974;28;20260;-64
2022/03/11 02:46:16;;;;;;;0.30;0.30;;;;;;;;;;5085519;28;20626;-64
2022/03/11 02:48:43;;;;;;;0.30;0.30;;;;;;;;;;5092305;28;20245;-64
2022/03/11 02:51:09;;;;;;;0.30;0.30;;;;;;;;;;5084131;28;20234;-63
2022/03/11 02:53:40;;;;;;;0.40;0.40;;;;;;;;;;5093675;28;20249;-64
2022/03/11 02:56:06;;;;;;;0.30;0.30;;;;;;;;;;5083572;28;20276;-63
2022/03/11 02:58:34;;;;;;;0.30;0.30;;;;;;;;;;5093816;28;20428;-64
2022/03/11 03:01:01;;;;;;;0.30;0.30;;;;;;;;;;5082539;28;20242;-65
2022/03/11 03:03:27;;;;;;;0.30;0.30;;;;;;;;;;5094583;28;20241;-63
2022/03/11 03:05:53;;;;;;;0.40;0.40;;;;;;;;;;5082009;28;20288;-64
2022/03/11 03:08:19;;;;;;;0.27;0.27;;;;;;;;;;5095376;28;20445;-64
2022/03/11 03:10:48;;;;;;;0.20;0.20;;;;;;;;;;5080599;28;20238;-64
2022/03/11 03:13:15;;;;;;;4.77;4.60;;;;;;;;;;5095566;28;20203;-63
2022/03/11 03:15:42;;;;;;;0.30;0.30;;;;;;;;;;5080319;28;20362;-63
2022/03/11 03:18:09;;;;;;;0.40;0.40;;;;;;;;;;5096636;28;20276;-64
2022/03/11 03:20:35;;;;;;;0.77;0.77;;;;;;;;;;5079411;28;20297;-64
2022/03/11 03:23:01;;;;;;;0.30;0.30;;;;;;;;;;5097399;28;20560;-64
2022/03/11 03:25:27;;;;;;;0.40;0.40;;;;;;;;;;5078201;28;20247;-64
2022/03/11 03:27:54;;;;;;;0.30;0.30;;;;;;;;;;5098521;28;20200;-65
2022/03/11 03:30:20;;;;;;;0.40;0.40;;;;;;;;;;5077348;28;20403;-64
2022/03/11 03:32:47;;;;;;;0.30;0.30;;;;;;;;;;5098772;28;20200;-65
2022/03/11 03:35:14;;;;;;;0.40;0.40;;;;;;;;;;5075829;28;20209;-64
2022/03/11 03:37:40;;;;;;;0.30;0.30;;;;;;;;;;5099827;28;20231;-64
2022/03/11 03:40:07;;;;;;;0.30;0.30;;;;;;;;;;5076102;28;20560;-64
2022/03/11 03:42:34;;;;;;;0.30;0.30;;;;;;;;;;5100694;28;20257;-65
2022/03/11 03:45:00;;;;;;;0.30;0.30;;;;;;;;;;5085038;28;20207;-64
2022/03/11 03:47:26;;;;;;;0.30;0.30;;;;;;;;;;5090573;28;20239;-64
2022/03/11 03:49:53;;;;;;;0.30;0.30;;;;;;;;;;5085282;28;20396;-63
2022/03/11 03:52:20;;;;;;;0.30;0.30;;;;;;;;;;5090613;28;20267;-65
2022/03/11 03:54:46;;;;;;;0.67;0.67;;;;;;;;;;5085406;28;20261;-64
2022/03/11 03:57:12;;;;;;;0.30;0.30;;;;;;;;;;5090630;28;20295;-65
2022/03/11 03:59:39;;;;;;;0.30;0.30;;;;;;;;;;5085012;28;20206;-64
2022/03/11 04:02:05;;;;;;;0.40;0.40;;;;;;;;;;5090375;28;20283;-64
2022/03/11 04:04:31;;;;;;;0.30;0.30;;;;;;;;;;5084966;28;20202;-64
2022/03/11 04:06:59;;;;;;;1.07;1.07;;;;;;;;;;5089334;28;20238;-63
2022/03/11 04:09:25;;;;;;;0.30;0.30;;;;;;;;;;5085308;28;20245;-64
2022/03/11 04:11:51;;;;;;;0.30;0.30;;;;;;;;;;5088077;28;20261;-64
2022/03/11 04:14:18;;;;;;;1.97;1.90;;;;;;;;;;5086510;28;20400;-64
2022/03/11 04:16:44;;;;;;;0.73;0.73;;;;;;;;;;5087261;28;20246;-64
2022/03/11 04:19:10;;;;;;;0.30;0.30;;;;;;;;;;5087200;28;20196;-64
2022/03/11 04:21:36;;;;;;;0.30;0.30;;;;;;;;;;5086338;28;20238;-64
2022/03/11 04:24:13;;;;;;;0.30;0.30;;;;;;;;;;5087988;28;20211;-64
2022/03/11 04:26:39;;;;;;;0.30;0.30;;;;;;;;;;5086357;28;20297;-65
2022/03/11 04:29:05;;;;;;;0.30;0.30;;;;;;;;;;5088194;28;20429;-63
2022/03/11 04:31:32;;;;;;;0.30;0.30;;;;;;;;;;5085356;28;20552;-64
2022/03/11 04:33:58;;;;;;;0.30;0.30;;;;;;;;;;5088704;28;20223;-65
2022/03/11 04:36:24;;;;;;;0.90;0.90;;;;;;;;;;5084247;28;20301;-64
2022/03/11 04:38:50;;;;;;;0.30;0.30;;;;;;;;;;5089630;28;20474;-63
2022/03/11 04:41:18;;;;;;;0.40;0.40;;;;;;;;;;5083233;28;20568;-64
2022/03/11 04:43:45;;;;;;;0.30;0.30;;;;;;;;;;5090573;28;20510;-65
2022/03/11 04:46:11;;;;;;;0.53;0.53;;;;;;;;;;5081966;28;20237;-64
2022/03/11 04:48:39;;;;;;;0.40;0.40;;;;;;;;;;5091087;28;20305;-64
2022/03/11 04:51:05;;;;;;;0.50;0.50;;;;;;;;;;5081442;28;20238;-64
2022/03/11 04:53:32;;;;;;;14.23;9.10;;;;;;;;;;5091659;28;20203;-64
2022/03/11 04:55:58;;;;;;;0.30;0.30;;;;;;;;;;5080528;28;20509;-63
2022/03/11 04:58:26;;;;;;;0.30;0.30;;;;;;;;;;5092670;28;20276;-63
2022/03/11 05:00:52;;;;;;;0.30;0.30;;;;;;;;;;5079739;28;20317;-65
2022/03/11 05:03:18;;;;;;;0.30;0.30;;;;;;;;;;5092910;28;20207;-65
2022/03/11 05:05:45;;;;;;;0.30;0.30;;;;;;;;;;5078452;28;20242;-65
2022/03/11 05:08:12;;;;;;;0.50;0.50;;;;;;;;;;5094048;28;20372;-64
2022/03/11 05:10:38;;;;;;;0.50;0.50;;;;;;;;;;5077725;28;20290;-65
2022/03/11 05:13:04;;;;;;;0.40;0.40;;;;;;;;;;5095000;28;20207;-64
2022/03/11 05:15:32;;;;;;;0.40;0.40;;;;;;;;;;5076664;28;20272;-65
2022/03/11 05:17:58;;;;;;;2.63;2.53;;;;;;;;;;5095762;28;20242;-64
2022/03/11 05:20:24;;;;;;;0.30;0.30;;;;;;;;;;5075715;28;20244;-64
2022/03/11 05:22:51;;;;;;;0.37;0.37;;;;;;;;;;5096515;28;20268;-65
2022/03/11 05:25:17;;;;;;;0.30;0.30;;;;;;;;;;5074640;28;20597;-64
2022/03/11 05:27:43;;;;;;;1.03;1.03;;;;;;;;;;5097286;28;20199;-64
2022/03/11 05:30:10;;;;;;;0.40;0.40;;;;;;;;;;5073857;28;20233;-66
2022/03/11 05:32:41;;;;;;;0.40;0.40;;;;;;;;;;5098275;28;20522;-65
2022/03/11 05:35:08;;;;;;;0.30;0.30;;;;;;;;;;5073138;28;20533;-64
2022/03/11 05:37:34;;;;;;;1.07;1.07;;;;;;;;;;5098408;28;20422;-63
2022/03/11 05:40:01;;;;;;;0.40;0.40;;;;;;;;;;5083395;28;20274;-65
2022/03/11 05:42:27;;;;;;;0.93;0.93;;;;;;;;;;5088696;28;20235;-64
2022/03/11 05:44:53;;;;;;;0.30;0.30;;;;;;;;;;5083385;28;20259;-64
2022/03/11 05:47:19;;;;;;;0.40;0.40;;;;;;;;;;5088630;28;20621;-63
2022/03/11 05:49:47;;;;;;;0.40;0.40;;;;;;;;;;5082961;28;20518;-65
2022/03/11 05:52:13;;;;;;;0.30;0.30;;;;;;;;;;5088509;28;20349;-65
2022/03/11 05:54:39;;;;;;;0.30;0.30;;;;;;;;;;5083178;28;20260;-65
2022/03/11 05:57:05;;;;;;;0.30;0.30;;;;;;;;;;5088482;28;20246;-65
2022/03/11 05:59:32;;;;;;;0.33;0.33;;;;;;;;;;5081997;28;20218;-64
2022/03/11 06:01:58;;;;;;;0.30;0.30;;;;;;;;;;5086648;28;20257;-64
2022/03/11 06:04:24;;;;;;;0.40;0.40;;;;;;;;;;5083897;28;20206;-64
2022/03/11 06:06:52;;;;;;;0.37;0.37;;;;;;;;;;5086173;28;20306;-64
2022/03/11 06:09:18;;;;;;;0.33;0.33;;;;;;;;;;5084689;28;20199;-65
2022/03/11 06:11:45;;;;;;;0.80;0.80;;;;;;;;;;5085775;28;20242;-65
2022/03/11 06:14:11;;;;;;;0.40;0.40;;;;;;;;;;5085584;28;20255;-64
2022/03/11 06:16:37;;;;;;;1.90;1.90;;;;;;;;;;5084362;28;20267;-65
2022/03/11 06:19:03;;;;;;;0.50;0.50;;;;;;;;;;5086439;28;20526;-64
2022/03/11 06:21:30;;;;;;;0.30;0.30;;;;;;;;;;5083628;28;20295;-65
2022/03/11 06:23:57;;;;;;;0.53;0.53;;;;;;;;;;5087273;28;20223;-64
2022/03/11 06:26:24;;;;;;;0.30;0.30;;;;;;;;;;5082710;28;20241;-64
2022/03/11 06:28:50;;;;;;;0.30;0.30;;;;;;;;;;5087915;28;20527;-64
2022/03/11 06:31:16;;;;;;;3.40;2.93;;;;;;;;;;5081800;28;20250;-63
2022/03/11 06:33:42;;;;;;;0.40;0.40;;;;;;;;;;5089022;28;20534;-64
2022/03/11 06:36:09;;;;;;;0.30;0.30;;;;;;;;;;5080490;28;20557;-68
2022/03/11 06:38:38;;;;;;;0.30;0.30;;;;;;;;;;5090068;28;20459;-69
2022/03/11 06:41:05;;;;;;;0.30;0.30;;;;;;;;;;5079874;28;20242;-69
2022/03/11 06:43:31;;;;;;;0.93;0.93;;;;;;;;;;5090572;28;20213;-69
2022/03/11 06:45:58;;;;;;;0.33;0.33;;;;;;;;;;5079083;28;20238;-68
2022/03/11 06:48:24;;;;;;;0.70;0.70;;;;;;;;;;5091037;28;20219;-68
2022/03/11 06:50:50;;;;;;;0.40;0.40;;;;;;;;;;5078073;28;20315;-69
2022/03/11 06:53:18;;;;;;;1.00;1.00;;;;;;;;;;5092034;28;20274;-69
2022/03/11 06:55:44;;;;;;;0.30;0.30;;;;;;;;;;5077159;28;20327;-68
2022/03/11 06:58:11;;;;;;;0.30;0.30;;;;;;;;;;5092683;28;20563;-69
2022/03/11 07:00:38;;;;;;;0.30;0.30;;;;;;;;;;5076363;28;20237;-68
2022/03/11 07:03:04;;;;;;;0.50;0.50;;;;;;;;;;5093451;28;20191;-70
2022/03/11 07:05:30;;;;;;;0.30;0.30;;;;;;;;;;5075369;28;20265;-70
2022/03/11 07:07:56;;;;;;;0.30;0.30;;;;;;;;;;5094412;28;20219;-69
2022/03/11 07:10:23;;;;;;;0.30;0.30;;;;;;;;;;5075704;28;20253;-69
2022/03/11 07:12:49;;;;;;;0.40;0.40;;;;;;;;;;5099362;28;20203;-70
2022/03/11 07:15:17;;;;;;;0.50;0.50;;;;;;;;;;5077219;28;20210;-69
2022/03/11 07:17:43;;;;;;;0.30;0.30;;;;;;;;;;5100160;28;20239;-69
2022/03/11 07:20:10;;;;;;;0.30;0.30;;;;;;;;;;5076262;28;20203;-68
2022/03/11 07:22:36;;;;;;;0.60;0.60;;;;;;;;;;5100782;28;20207;-69
2022/03/11 07:25:02;;;;;;;0.30;0.30;;;;;;;;;;5085359;28;20225;-71
2022/03/11 07:27:29;;;;;;;0.73;0.73;;;;;;;;;;5091121;28;20284;-70
2022/03/11 07:29:56;;;;;;;0.30;0.30;;;;;;;;;;5085747;28;20211;-69
2022/03/11 07:32:24;;;;;;;0.30;0.30;;;;;;;;;;5091026;28;20246;-69
2022/03/11 07:34:50;;;;;;;0.30;0.30;;;;;;;;;;5085394;28;20233;-69
2022/03/11 07:37:16;;;;;;;0.30;0.30;;;;;;;;;;5090938;28;20238;-69
2022/03/11 07:39:42;;;;;;;0.20;0.20;;;;;;;;;;5085413;28;20235;-69
2022/03/11 07:42:09;;;;;;;0.23;0.23;;;;;;;;;;5090750;28;20268;-69
2022/03/11 07:44:35;;;;;;;2.00;2.00;;;;;;;;;;5084921;28;20406;-68
2022/03/11 07:47:02;;;;;;;0.20;0.20;;;;;;;;;;5090395;28;20238;-68
2022/03/11 07:49:29;;;;;;;0.20;0.20;;;;;;;;;;5085539;28;20214;-69
2022/03/11 07:51:55;;;;;;;0.10;0.10;;;;;;;;;;5089514;28;20245;-69
2022/03/11 07:54:22;;;;;;;0.60;0.60;;;;;;;;;;5086422;28;20206;-68
2022/03/11 07:56:48;;;;;;;0.20;0.20;;;;;;;;;;5088400;28;20570;-70
2022/03/11 07:59:14;;;;;;;0.20;0.20;;;;;;;;;;5087334;28;20226;-69
2022/03/11 08:01:40;;;;;;;0.10;0.10;;;;;;;;;;5087133;28;20296;-69
2022/03/11 08:04:07;;;;;;;0.20;0.20;;;;;;;;;;5088329;28;20204;-69
2022/03/11 08:06:36;;;;;;;0.27;0.27;;;;;;;;;;5084426;28;20247;-68
2022/03/11 08:09:02;;;;;;;0.20;0.20;;;;;;;;;;5090428;28;20200;-69
2022/03/11 08:11:28;;;;;;;0.40;0.40;;;;;;;;;;5084918;28;20238;-69
2022/03/11 08:13:54;;;;;;;0.10;0.10;;;;;;;;;;5090136;28;20204;-69
2022/03/11 08:16:21;;;;;;;0.13;0.13;;;;;;;;;;5083863;28;20413;-68
2022/03/11 08:18:47;;;;;;;0.60;0.60;;;;;;;;;;5090191;28;20713;-68
2022/03/11 08:21:16;;;;;;;0.10;0.10;;;;;;;;;;5082161;28;20248;-68
2022/03/11 08:23:44;;;;;;;0.63;0.63;;;;;;;;;;5090252;28;20238;-67
2022/03/11 08:26:10;;;;;;;0.20;0.20;;;;;;;;;;5082271;28;20246;-68
2022/03/11 08:28:37;;;;;;;0.10;0.10;;;;;;;;;;5091096;28;20379;-69
2022/03/11 08:31:03;;;;;;;1.33;1.33;;;;;;;;;;5081492;28;20251;-68
2022/03/11 08:33:30;;;;;;;0.10;0.10;;;;;;;;;;5092559;28;20223;-68
2022/03/11 08:35:57;;;;;;;0.27;0.27;;;;;;;;;;5079387;28;20250;-68
2022/03/11 08:38:24;;;;;;;0.10;0.10;;;;;;;;;;5094432;28;20223;-68
2022/03/11 08:40:52;;;;;;;0.10;0.10;;;;;;;;;;5079919;28;20253;-68
2022/03/11 08:43:19;;;;;;;0.10;0.10;;;;;;;;;;5094054;28;20214;-68
2022/03/11 08:45:45;;;;;;;0.83;0.83;;;;;;;;;;5079113;28;20243;-68
2022/03/11 08:48:11;;;;;;;0.10;0.10;;;;;;;;;;5094447;28;20241;-68
2022/03/11 08:50:37;;;;;;;0.03;0.03;;;;;;;;;;5077964;28;20574;-68
2022/03/11 08:53:04;;;;;;;0.00;0.00;;;;;;;;;;5095193;28;20247;-68
2022/03/11 08:55:30;;;;;;;0.00;0.00;;;;;;;;;;5077018;28;20452;-69
2022/03/11 08:57:57;;;;;;;0.08;0.08;;;;;;;;;;5096305;28;20201;-68
2022/03/11 09:00:25;;;;;;;0.10;0.10;;;;;;;;;;5076038;28;20268;-69
2022/03/11 09:02:51;;;;;;;0.10;0.10;;;;;;;;;;5097182;28;20207;-67
2022/03/11 09:05:20;;;;;;;0.10;0.10;;;;;;;;;;5079056;28;20211;-68
2022/03/11 09:07:47;;;;;;;0.10;0.10;;;;;;;;;;5098866;28;20236;-68
2022/03/11 09:10:14;;;;;;;0.00;0.00;;;;;;;;;;5073375;28;20197;-68
2022/03/11 09:12:40;;;;;;;0.00;0.00;;;;;;;;;;5097655;28;20439;-68
2022/03/11 09:15:09;;;;;;;0.08;0.08;;;;;;;;;;5074406;28;20213;-67
2022/03/11 09:17:36;;;;;;;0.35;0.35;;;;;;;;;;5098731;28;20226;-68
2022/03/11 09:20:03;;;;;;;0.00;0.00;;;;;;;;;;5083325;28;20289;-68
2022/03/11 09:22:29;;;;;;;1.00;0.35;;;;;;;;;;5089009;28;20250;-68
2022/03/11 09:24:55;;;;;;;0.00;0.00;;;;;;;;;;5083327;28;20214;-68
2022/03/11 09:27:23;;;;;;;0.55;0.38;;;;;;;;;;5088774;28;20308;-69
2022/03/11 09:29:50;;;;;;;0.10;0.10;;;;;;;;;;5083306;28;20216;-69
2022/03/11 09:32:17;;;;;;;1.30;0.95;;;;;;;;;;5088836;28;20245;-68
2022/03/11 09:34:44;;;;;;;0.20;0.20;;;;;;;;;;5083273;28;20233;-69
2022/03/11 09:37:10;;;;;;;0.63;0.63;;;;;;;;;;5088653;28;20241;-69
2022/03/11 09:39:36;;;;;;;0.65;0.63;;;;;;;;;;5083363;28;20274;-68
2022/03/11 09:42:03;;;;;;;0.03;0.03;;;;;;;;;;5088221;28;20240;-69
2022/03/11 09:44:29;;;;;;;0.10;0.10;;;;;;;;;;5083310;28;20204;-70
2022/03/11 09:46:56;;;;;;;0.05;0.05;;;;;;;;;;5087438;28;20243;-71
2022/03/11 09:49:24;;;;;;;0.10;0.10;;;;;;;;;;5084065;28;20206;-68
2022/03/11 09:51:50;;;;;;;0.25;0.22;;;;;;;;;;5086542;28;20252;-69
2022/03/11 09:54:16;;;;;;;0.30;0.30;;;;;;;;;;5085236;28;20205;-69
2022/03/11 09:56:44;;;;;;;0.10;0.10;;;;;;;;;;5085490;28;20473;-70
2022/03/11 09:59:10;;;;;;;0.20;0.20;;;;;;;;;;5085891;28;20237;-69
2022/03/11 10:01:37;;;;;;;0.00;0.00;;;;;;;;;;5084208;28;20279;-69
2022/03/11 10:04:03;;;;;;;0.10;0.10;;;;;;;;;;5086826;28;20238;-68
2022/03/11 10:06:38;;;;;;;0.08;0.08;;;;;;;;;;5082795;28;20345;-67
2022/03/11 10:09:04;;;;;;;0.20;0.20;;;;;;;;;;5086956;28;20190;-68
2022/03/11 10:11:31;;;;;;;1.65;1.45;;;;;;;;;;5082622;28;20240;-68
2022/03/11 10:14:04;;;;;;;0.43;0.43;;;;;;;;;;5088249;28;20366;-68
2022/03/11 10:16:31;;;;;;;0.10;0.10;;;;;;;;;;5083415;28;20569;-68
2022/03/11 10:18:59;;;;;;;0.63;0.63;;;;;;;;;;5087231;28;20476;-68
2022/03/11 10:21:29;;;;;;;0.20;0.20;;;;;;;;;;5082815;28;20426;-68
2022/03/11 10:23:57;;;;;;;0.28;0.28;;;;;;;;;;5087191;28;20204;-63
2022/03/11 10:26:37;;;;;;;0.10;0.10;;;;;;;;;;5081502;28;20615;-63
2022/03/11 10:29:04;;;;;;;1.30;1.30;;;;;;;;;;5087566;28;20201;-63
2022/03/11 10:31:31;;;;;;;0.10;0.10;;;;;;;;;;5083692;28;20290;-64
2022/03/11 10:34:21;;;;;;;0.10;0.10;;;;;;;;;;5087125;28;20530;-63
2022/03/11 10:36:48;;;;;;;1.15;1.10;;;;;;;;;;5085797;28;20560;-62
2022/03/11 10:39:16;;;;;;;1.20;0.60;;;;;;;;;;5084707;28;20277;-64
2022/03/11 10:41:43;;;;;;;0.80;0.80;;;;;;;;;;5084473;28;20297;-64
2022/03/11 10:44:11;;;;;;;0.10;0.10;;;;;;;;;;5086204;28;20205;-64
2022/03/11 10:46:37;;;;;;;0.10;0.10;;;;;;;;;;5087727;28;20250;-63
2022/03/11 10:49:04;;;;;;;0.10;0.10;;;;;;;;;;5090134;28;20250;-63
2022/03/11 10:51:30;;;;;;;0.10;0.10;;;;;;;;;;5085637;28;20246;-65
2022/03/11 10:53:57;;;;;;;0.00;0.00;;;;;;;;;;5092200;28;20504;-64
2022/03/11 10:56:29;;;;;;;0.43;0.43;;;;;;;;;;5086028;28;20475;-63
2022/03/11 10:58:55;;;;;;;0.10;0.10;;;;;;;;;;5091505;28;20415;-64
2022/03/11 11:01:33;;;;;;;0.10;0.10;;;;;;;;;;5084970;28;20280;-63
2022/03/11 11:04:01;;;;;;;0.10;0.10;;;;;;;;;;5091313;28;20382;-63
2022/03/11 11:06:27;;;;;;;0.10;0.10;;;;;;;;;;5086103;28;20621;-63
2022/03/11 11:08:53;;;;;;;0.03;0.03;;;;;;;;;;5090802;28;20201;-63
2022/03/11 11:11:20;;;;;;;0.00;0.00;;;;;;;;;;5085548;28;20582;-63
2022/03/11 11:13:47;;;;;;;0.40;0.40;;;;;;;;;;5091940;28;20279;-64
2022/03/11 11:16:14;;;;;;;0.10;0.10;;;;;;;;;;5084611;28;20252;-65
2022/03/11 11:18:44;;;;;;;0.30;0.30;;;;;;;;;;5092606;28;20220;-64
2022/03/11 11:21:11;;;;;;;0.10;0.10;;;;;;;;;;5084118;28;20339;-65
2022/03/11 11:23:38;;;;;;;0.23;0.23;;;;;;;;;;5092724;28;20223;-63
2022/03/11 11:26:05;;;;;;;0.00;0.00;;;;;;;;;;5082040;28;20300;-64
2022/03/11 11:28:31;;;;;;;0.10;0.10;;;;;;;;;;5094614;28;20257;-65
2022/03/11 11:31:00;;;;;;;0.03;0.03;;;;;;;;;;5081626;28;20240;-64
2022/03/11 11:33:26;;;;;;;0.00;0.00;;;;;;;;;;5094576;28;20229;-64
2022/03/11 11:35:56;;;;;;;0.93;0.57;;;;;;;;;;5080284;28;20298;-64
2022/03/11 11:38:30;;;;;;;0.10;0.10;;;;;;;;;;5095577;28;20194;-64
2022/03/11 11:40:57;;;;;;;2.03;0.83;;;;;;;;;;5080640;28;20313;-64
2022/03/11 11:43:27;;;;;;;0.20;0.20;;;;;;;;;;5095767;28;20212;-63
2022/03/11 11:46:14;;;;;;;2.57;1.80;;;;;;;;;;5080437;28;20239;-63
2022/03/11 11:49:00;;;;;;;1.07;1.07;;;;;;;;;;5093416;28;20204;-64
2022/03/11 11:51:45;;;;;;;0.10;0.10;;;;;;;;;;5085182;28;20242;-63
2022/03/11 11:54:11;;;;;;;0.10;0.10;;;;;;;;;;5087141;28;20209;-63
2022/03/11 11:56:39;;;;;;;0.00;0.00;;;;;;;;;;5086434;28;20290;-64
2022/03/11 11:59:09;;;;;;;0.20;0.10;;;;;;;;;;5087669;28;20521;-64
2022/03/11 12:01:43;;;;;;;0.08;0.08;;;;;;;;;;5085635;28;20245;-64
2022/03/11 12:04:22;;;;;;;0.10;0.10;;;;;;;;;;5088142;28;20270;-64
2022/03/11 12:06:56;;;;;;;0.25;0.25;;;;;;;;;;5087827;28;20296;-63
2022/03/11 12:09:41;;;;;;;0.20;0.20;;;;;;;;;;5086263;28;20221;-64
2022/03/11 12:12:08;;;;;;;0.13;0.13;;;;;;;;;;5089559;28;20240;-64
2022/03/11 12:14:59;;;;;;;1.87;1.80;;;;;;;;;;5085883;28;20204;-63
2022/03/11 12:17:37;;;;;;;0.10;0.10;;;;;;;;;;5090299;28;20234;-64
2022/03/11 12:20:18;;;;;;;0.50;0.50;;;;;;;;;;5085067;28;20225;-63
2022/03/11 12:22:52;;;;;;;0.43;0.43;;;;;;;;;;5072671;28;20211;-62
2022/03/11 12:25:21;;;;;;;0.43;0.43;;;;;;;;;;5074207;28;20253;-63
2022/03/11 12:27:58;;;;;;;0.60;0.47;;;;;;;;;;5098894;28;20504;-63
2022/03/11 12:30:24;;;;;;;2.20;2.10;;;;;;;;;;5075731;28;20223;-64
2022/03/11 12:32:52;;;;;;;0.10;0.10;;;;;;;;;;5097605;28;20448;-64
2022/03/11 12:35:18;;;;;;;0.37;0.37;;;;;;;;;;5075459;28;20265;-64
2022/03/11 12:37:45;;;;;;;0.80;0.80;;;;;;;;;;5097379;28;20211;-62
2022/03/11 12:40:11;;;;;;;3.10;2.47;;;;;;;;;;5074491;28;20286;-62
2022/03/11 12:42:38;;;;;;;0.23;0.23;;;;;;;;;;5098085;28;20219;-64
2022/03/11 12:45:04;;;;;;;0.20;0.20;;;;;;;;;;5083970;28;20203;-64
2022/03/11 12:47:35;;;;;;;0.50;0.50;;;;;;;;;;5089630;28;20269;-64
2022/03/11 12:50:03;;;;;;;0.10;0.10;;;;;;;;;;5084001;28;20191;-64
2022/03/11 12:52:36;;;;;;;0.50;0.50;;;;;;;;;;5089535;28;20239;-64
2022/03/11 12:55:02;;;;;;;0.20;0.20;;;;;;;;;;5084185;28;20194;-62
2022/03/11 12:57:28;;;;;;;0.10;0.10;;;;;;;;;;5089396;28;20270;-62
2022/03/11 12:59:54;;;;;;;0.10;0.10;;;;;;;;;;5083566;28;20229;-63
2022/03/11 13:02:21;;;;;;;0.33;0.33;;;;;;;;;;5089177;28;20239;-63
2022/03/11 13:04:47;;;;;;;0.97;0.97;;;;;;;;;;5083848;28;20249;-63
2022/03/11 13:07:17;;;;;;;4.57;0.80;;;;;;;;;;5088469;28;20309;-64
2022/03/11 13:09:43;;;;;;;0.10;0.10;;;;;;;;;;5082786;28;20195;-63
2022/03/11 13:12:22;;;;;;;0.30;0.30;;;;;;;;;;5089068;28;20369;-64
2022/03/11 13:14:48;;;;;;;0.20;0.20;;;;;;;;;;5083707;28;20249;-64
2022/03/11 13:17:15;;;;;;;0.53;0.43;;;;;;;;;;5089067;28;20240;-64
2022/03/11 13:19:43;;;;;;;0.10;0.10;;;;;;;;;;5083583;28;20236;-64
2022/03/11 13:22:12;;;;;;;0.13;0.13;;;;;;;;;;5088967;28;20543;-64
2022/03/11 13:24:40;;;;;;;0.23;0.23;;;;;;;;;;5083342;28;20220;-64
2022/03/11 13:27:06;;;;;;;3.40;3.20;;;;;;;;;;5088839;28;20241;-64
2022/03/11 13:29:41;;;;;;;0.40;0.40;;;;;;;;;;5083181;28;20258;-64
2022/03/11 13:32:07;;;;;;;0.53;0.53;;;;;;;;;;5087628;28;20313;-63
2022/03/11 13:34:35;;;;;;;0.10;0.10;;;;;;;;;;5084237;28;20223;-70
2022/03/11 13:37:11;;;;;;;0.10;0.10;;;;;;;;;;5088008;28;20262;-68
2022/03/11 13:39:37;;;;;;;0.67;0.67;;;;;;;;;;5083209;28;20444;-69
2022/03/11 13:42:05;;;;;;;0.10;0.10;;;;;;;;;;5088420;28;20240;-69
2022/03/11 13:44:33;;;;;;;0.20;0.20;;;;;;;;;;5083242;28;20204;-69
2022/03/11 13:47:00;;;;;;;0.10;0.10;;;;;;;;;;5087621;28;20295;-69
2022/03/11 13:49:37;;;;;;;0.20;0.20;;;;;;;;;;5083791;28;20390;-69
2022/03/11 13:52:05;;;;;;;0.10;0.10;;;;;;;;;;5088323;28;20270;-68
2022/03/11 13:54:34;;;;;;;0.10;0.10;;;;;;;;;;5083181;28;20434;-69
2022/03/11 13:57:16;;;;;;;0.37;0.37;;;;;;;;;;5087845;28;20239;-70
2022/03/11 13:59:43;;;;;;;0.10;0.10;;;;;;;;;;5082980;28;20231;-69
2022/03/11 14:02:10;;;;;;;0.27;0.27;;;;;;;;;;5088270;28;20290;-69
2022/03/11 14:04:36;;;;;;;0.13;0.13;;;;;;;;;;5082761;28;20205;-69
2022/03/11 14:07:07;;;;;;;1.60;1.60;;;;;;;;;;5087748;28;20240;-69
2022/03/11 14:09:33;;;;;;;0.10;0.10;;;;;;;;;;5082972;28;20205;-69
2022/03/11 14:11:59;;;;;;;0.20;0.20;;;;;;;;;;5087430;28;20240;-69
2022/03/11 14:14:28;;;;;;;0.93;0.50;;;;;;;;;;5083600;28;20257;-69
2022/03/11 14:16:55;;;;;;;0.10;0.10;;;;;;;;;;5086597;28;20242;-69
2022/03/11 14:19:21;;;;;;;0.10;0.10;;;;;;;;;;5084264;28;20207;-69
2022/03/11 14:21:47;;;;;;;0.10;0.10;;;;;;;;;;5089499;28;20243;-69
2022/03/11 14:24:13;;;;;;;0.60;0.33;;;;;;;;;;5089013;28;20210;-68
2022/03/11 14:26:40;;;;;;;0.10;0.10;;;;;;;;;;5088941;28;20243;-71
2022/03/11 14:29:06;;;;;;;0.10;0.10;;;;;;;;;;5090245;28;20386;-70
2022/03/11 14:31:34;;;;;;;0.10;0.10;;;;;;;;;;5087535;28;20277;-69
2022/03/11 14:34:00;;;;;;;0.17;0.17;;;;;;;;;;5091048;28;20441;-69
2022/03/11 14:36:26;;;;;;;0.10;0.10;;;;;;;;;;5086828;28;20296;-69
2022/03/11 14:38:53;;;;;;;0.10;0.10;;;;;;;;;;5091551;28;20375;-69
2022/03/11 14:41:19;;;;;;;0.10;0.10;;;;;;;;;;5085505;28;20250;-70
2022/03/11 14:43:45;;;;;;;0.10;0.10;;;;;;;;;;5092634;28;20211;-69